Abiquiu, NM

8:11 AM MDT on April 26, 2015 (GMT -0600)
Plaza Blanca | | Change Station
CLOSE
Current Station
Personal Weather Station
Location: Abiquiu, NM
Elevation: 6154 ft
Nearby Weather Stations

Elev 6154 ft 36.22 °N, 106.28 °W | Updated 6 seconds ago

Rain
Rain
49.3 °F
Feels Like 49 °F
N
1.1
Wind Variable Wind from SE
Gusts 1.8 mph

Today
High -- | Low -- °F
--% Chance of Precip.
Yesterday
High -- | Low -- °F
Precip. -- in
6:18 AM 7:48 PM
First Quarter, 56% visible
Pressure 29.80 in
Visibility 10.0 miles
Clouds Scattered Clouds 2200 ft
Overcast 4100 ft
Windchill 49 °F
Dew Point 39 °F
Humidity 68%
Rainfall 0.03 in
Snow Depth Not available.
UV 0 out of 12
Pollen 4.10 out of 12
Air Quality Not available.
Flu Activity Local Activity
METAR KLAM 261355Z AUTO 04004KT 10SM SCT022 OVC041 05/02 A2980 RMK AO2 T00500021

More Conditions Fewer Conditions

Pressure 29.80 in
Visibility 10.0 miles
Clouds Scattered Clouds 2200 ft
Overcast 4100 ft
Windchill 49 °F
Dew Point 39 °F
Humidity 68%
Rainfall 0.03 in
Snow Depth Not available.
UV 0 out of 12
Pollen 4.10 out of 12
Air Quality Not available.
Flu Activity Local Activity
METAR KLAM 261355Z AUTO 04004KT 10SM SCT022 OVC041 05/02 A2980 RMK AO2 T00500021

More Conditions Fewer Conditions

The full scope of the disaster following a powerful 7.8-magnitude earthquake in Nepal may not come into view for days, but global charities are already sending emergency aid. Click to see how you can help.
Nowcast | as of 5:53 am MDT on April 26, 2015

Through 8 am MDT...scattered to numerous showers and a few short lived thunderstorms will move northeast over much of western and central New Mexico this morning. Rainfall amounts will range from several hundreths to one quarter inch. The stronger showers or thunderstorms will produce gusty winds and a few cloud to ground lightning strikes. Some locations which will be affected include Acoma Pueblo...Bernardo...Belen...Albuquerque Metro...Jemez Springs...La Cueva and Cuba.

×

10-Day Weather Forecast

Almanac

Astronomy

Apr. 26, 2015 Rise Set
Actual Time
Civil Twilight
Nautical Twilight
Astronomical Twilight
Moon
Length of Visible Light
Length of Day
Tomorrow will be .
, % of the Moon is Illuminated

Today's Extremes

State Highs State Lows

Community

WunderPhotos

Upload Photos

1,817,007 photos uploaded!

WunderBlogs® & News

Nearby

Air Quality

  Air Quality AQ Index Pollutant
Not available.

Snow Depth

Station Depth Elevation

Earthquake Activity

City Distance Mag. Time & Date
Minimum magnitude displayed is 2.5.

Coastal Water Temperatures

Place Temperature

Stations

Nearby Weather Stations

Station Location Temp. Windchill Dew Point Humidity Wind Precip. Elev Updated Type